Time;durP1;ratioP1;P1;durP2;ratioP2;P2;SDS_P1;SDS_P2;PMS_P1;PMS_P2;Temp;Humidity;BMP_temperature;BMP_pressure;BME280_temperature;BME280_humidity;BME280_pressure;Samples;Min_cycle;Max_cycle;Signal;HPM_P1;HPM_P2
2021/09/01 00:01:51;;;;;;;;;;;23.20;57.30;;;;;;494435;240;1166;-68
2021/09/01 00:03:52;;;;;;;;;;;23.30;57.30;;;;;;494056;240;1082;-68
2021/09/01 00:05:53;;;;;;;;;;;23.30;57.20;;;;;;494478;240;2174;-68
2021/09/01 00:07:55;;;;;;;;;;;23.30;57.20;;;;;;494301;240;1115;-68
2021/09/01 00:09:56;;;;;;;;;;;23.30;57.10;;;;;;494369;240;1056;-68
2021/09/01 00:11:57;;;;;;;;;;;23.30;57.10;;;;;;493962;240;1124;-68
2021/09/01 00:13:59;;;;;;;;;;;23.30;57.10;;;;;;494037;240;1043;-68
2021/09/01 00:16:00;;;;;;;;;;;23.40;57.00;;;;;;494120;240;1229;-68
2021/09/01 00:18:01;;;;;;;;;;;23.40;56.90;;;;;;493899;240;1063;-68
2021/09/01 00:20:03;;;;;;;;;;;23.40;56.90;;;;;;493955;240;1089;-68
2021/09/01 00:22:04;;;;;;;;;;;23.40;56.80;;;;;;493959;240;1304;-68
2021/09/01 00:24:05;;;;;;;;;;;23.50;56.80;;;;;;494103;240;1182;-68
2021/09/01 00:26:07;;;;;;;;;;;23.50;56.80;;;;;;494362;240;2195;-68
2021/09/01 00:28:08;;;;;;;;;;;23.50;56.80;;;;;;493974;240;1108;-68
2021/09/01 00:30:10;;;;;;;;;;;23.50;56.70;;;;;;494024;240;1064;-68
2021/09/01 00:32:11;;;;;;;;;;;23.50;56.70;;;;;;494137;240;1439;-68
2021/09/01 00:34:12;;;;;;;;;;;23.60;56.70;;;;;;494054;240;1021;-68
2021/09/01 00:36:13;;;;;;;;;;;23.60;56.60;;;;;;494279;240;1061;-68
2021/09/01 00:38:15;;;;;;;;;;;23.60;56.70;;;;;;494163;240;1291;-68
2021/09/01 00:40:16;;;;;;;;;;;23.60;56.50;;;;;;493981;240;1086;-68
2021/09/01 00:42:17;;;;;;;;;;;23.60;56.50;;;;;;494007;240;1379;-68
2021/09/01 00:44:19;;;;;;;;;;;23.60;56.50;;;;;;493982;240;1020;-68
2021/09/01 00:46:20;;;;;;;;;;;23.60;56.50;;;;;;493935;240;2178;-68
2021/09/01 00:48:21;;;;;;;;;;;23.70;56.50;;;;;;494000;240;1288;-68
2021/09/01 00:50:23;;;;;;;;;;;23.70;56.50;;;;;;494160;240;1079;-68
2021/09/01 00:52:24;;;;;;;;;;;23.70;56.40;;;;;;494043;240;1161;-68
2021/09/01 00:54:26;;;;;;;;;;;23.70;56.40;;;;;;494053;240;1160;-68
2021/09/01 00:56:27;;;;;;;;;;;23.70;56.40;;;;;;493986;240;1066;-68
2021/09/01 00:58:34;;;;;;;;;;;23.70;56.40;;;;;;494229;240;1022;-68
2021/09/01 01:00:37;;;;;;;;;;;23.70;56.30;;;;;;493791;241;1394;-68
2021/09/01 01:02:32;;;;;;;;;;;23.70;56.40;;;;;;493696;241;1438;-68
2021/09/01 01:04:33;;;;;;;;;;;23.70;56.40;;;;;;494493;240;1058;-68
2021/09/01 01:06:35;;;;;;;;;;;23.70;56.40;;;;;;494232;240;2147;-68
2021/09/01 01:08:36;;;;;;;;;;;23.70;56.40;;;;;;494348;240;1254;-68
2021/09/01 01:10:37;;;;;;;;;;;23.80;56.40;;;;;;494090;240;1073;-68
2021/09/01 01:12:38;;;;;;;;;;;23.80;56.30;;;;;;493956;240;1178;-68
2021/09/01 01:14:40;;;;;;;;;;;23.80;56.30;;;;;;494004;240;1032;-68
2021/09/01 01:16:41;;;;;;;;;;;23.80;56.30;;;;;;493934;240;1261;-68
2021/09/01 01:18:45;;;;;;;;;;;23.80;56.30;;;;;;494501;240;1109;-68
2021/09/01 01:20:44;;;;;;;;;;;23.80;56.30;;;;;;494165;241;1483;-68
2021/09/01 01:22:45;;;;;;;;;;;23.80;56.40;;;;;;494459;240;1201;-68
2021/09/01 01:24:46;;;;;;;;;;;23.80;56.30;;;;;;494156;240;1178;-68
2021/09/01 01:26:48;;;;;;;;;;;23.80;56.30;;;;;;494044;240;2183;-68
2021/09/01 01:28:49;;;;;;;;;;;23.80;56.30;;;;;;494202;240;1041;-68
2021/09/01 01:30:50;;;;;;;;;;;23.80;56.30;;;;;;494001;240;1040;-68
2021/09/01 01:32:52;;;;;;;;;;;23.80;56.30;;;;;;494477;240;1222;-68
2021/09/01 01:34:53;;;;;;;;;;;23.90;56.30;;;;;;494472;240;1075;-68
2021/09/01 01:36:54;;;;;;;;;;;23.90;56.30;;;;;;494144;240;1116;-68
2021/09/01 01:38:56;;;;;;;;;;;23.90;56.30;;;;;;493975;240;1115;-68
2021/09/01 01:40:57;;;;;;;;;;;23.90;56.20;;;;;;494387;240;1223;-68
2021/09/01 01:42:58;;;;;;;;;;;23.90;56.30;;;;;;494151;240;1519;-68
2021/09/01 01:45:00;;;;;;;;;;;23.90;56.20;;;;;;494065;240;1256;-68
2021/09/01 01:47:01;;;;;;;;;;;23.90;56.30;;;;;;493887;240;2131;-68
2021/09/01 01:49:02;;;;;;;;;;;23.90;56.30;;;;;;494236;240;1202;-68
2021/09/01 01:51:04;;;;;;;;;;;23.90;56.30;;;;;;493970;240;1139;-68
2021/09/01 01:53:05;;;;;;;;;;;23.90;56.20;;;;;;494170;240;1193;-68
2021/09/01 01:55:07;;;;;;;;;;;23.90;56.20;;;;;;494127;240;1182;-68
2021/09/01 01:57:08;;;;;;;;;;;23.90;56.20;;;;;;493985;240;1206;-68
2021/09/01 01:59:09;;;;;;;;;;;24.00;56.20;;;;;;494118;240;1157;-68
2021/09/01 02:01:11;;;;;;;;;;;24.00;56.30;;;;;;494001;240;1087;-68
2021/09/01 02:03:12;;;;;;;;;;;24.00;56.20;;;;;;494027;240;1101;-68
2021/09/01 02:05:13;;;;;;;;;;;24.00;56.20;;;;;;494172;240;1108;-68
2021/09/01 02:07:15;;;;;;;;;;;24.00;56.20;;;;;;493930;240;2131;-68
2021/09/01 02:09:16;;;;;;;;;;;24.00;56.20;;;;;;494021;240;1214;-68
2021/09/01 02:11:17;;;;;;;;;;;24.00;56.20;;;;;;494137;240;1153;-68
2021/09/01 02:13:19;;;;;;;;;;;24.00;56.30;;;;;;493997;240;1068;-68
2021/09/01 02:15:20;;;;;;;;;;;24.00;56.20;;;;;;493970;240;1114;-68
2021/09/01 02:17:21;;;;;;;;;;;24.00;56.20;;;;;;494046;240;1141;-68
2021/09/01 02:19:23;;;;;;;;;;;24.00;56.10;;;;;;494157;240;1095;-68
2021/09/01 02:21:24;;;;;;;;;;;24.00;56.20;;;;;;494190;240;1212;-68
2021/09/01 02:23:25;;;;;;;;;;;24.00;56.20;;;;;;493995;240;1062;-68
2021/09/01 02:25:27;;;;;;;;;;;24.00;56.20;;;;;;494108;240;1196;-68
2021/09/01 02:27:28;;;;;;;;;;;24.00;56.20;;;;;;493968;240;2167;-68
2021/09/01 02:29:29;;;;;;;;;;;24.00;56.20;;;;;;494402;240;1246;-68
2021/09/01 02:31:30;;;;;;;;;;;24.00;56.20;;;;;;493933;240;1286;-68
2021/09/01 02:33:32;;;;;;;;;;;24.00;56.20;;;;;;494255;240;1125;-68
2021/09/01 02:35:33;;;;;;;;;;;24.00;56.20;;;;;;494145;240;1120;-68
2021/09/01 02:37:34;;;;;;;;;;;24.00;56.20;;;;;;494394;240;1110;-68
2021/09/01 02:39:36;;;;;;;;;;;24.00;56.20;;;;;;494244;240;1144;-68
2021/09/01 02:41:37;;;;;;;;;;;24.00;56.20;;;;;;494321;240;1286;-68
2021/09/01 02:43:38;;;;;;;;;;;24.10;56.20;;;;;;494452;240;1157;-68
2021/09/01 02:45:40;;;;;;;;;;;24.00;56.10;;;;;;494305;240;2199;-68
2021/09/01 02:47:41;;;;;;;;;;;24.00;56.20;;;;;;493990;240;1205;-68
2021/09/01 02:49:42;;;;;;;;;;;24.10;56.20;;;;;;494305;240;1063;-68
2021/09/01 02:51:44;;;;;;;;;;;24.10;56.20;;;;;;494062;240;1145;-68
2021/09/01 02:53:45;;;;;;;;;;;24.10;56.20;;;;;;494026;240;1143;-68
2021/09/01 02:55:46;;;;;;;;;;;24.00;56.10;;;;;;494101;240;1305;-68
2021/09/01 02:57:48;;;;;;;;;;;24.10;56.10;;;;;;493992;240;1144;-68
2021/09/01 02:59:49;;;;;;;;;;;24.10;56.10;;;;;;494105;240;1067;-68
2021/09/01 03:01:50;;;;;;;;;;;24.10;56.10;;;;;;493985;240;1213;-68
2021/09/01 03:03:52;;;;;;;;;;;24.10;56.10;;;;;;494518;240;1045;-68
2021/09/01 03:05:53;;;;;;;;;;;24.10;56.10;;;;;;494195;240;2190;-68
2021/09/01 03:07:54;;;;;;;;;;;24.10;56.20;;;;;;494200;240;1140;-68
2021/09/01 03:09:56;;;;;;;;;;;24.10;56.20;;;;;;494054;240;1163;-68
2021/09/01 03:11:57;;;;;;;;;;;24.10;56.10;;;;;;493976;240;1293;-68
2021/09/01 03:13:58;;;;;;;;;;;24.10;56.20;;;;;;494077;240;1025;-68
2021/09/01 03:16:00;;;;;;;;;;;24.10;56.10;;;;;;494205;240;1112;-68
2021/09/01 03:18:01;;;;;;;;;;;24.10;56.10;;;;;;494096;240;1190;-68
2021/09/01 03:20:03;;;;;;;;;;;24.10;56.10;;;;;;494391;240;1066;-68
2021/09/01 03:22:04;;;;;;;;;;;24.10;56.10;;;;;;493974;240;1195;-68
2021/09/01 03:24:05;;;;;;;;;;;24.20;56.10;;;;;;494425;240;1102;-68
2021/09/01 03:26:06;;;;;;;;;;;24.10;56.00;;;;;;494107;240;2182;-68
2021/09/01 03:28:08;;;;;;;;;;;24.10;56.10;;;;;;493964;240;1128;-68
2021/09/01 03:30:09;;;;;;;;;;;24.10;56.10;;;;;;494066;240;1188;-68
2021/09/01 03:32:10;;;;;;;;;;;24.20;56.10;;;;;;493964;240;1372;-68
2021/09/01 03:34:12;;;;;;;;;;;24.10;56.10;;;;;;494066;240;1044;-68
2021/09/01 03:36:13;;;;;;;;;;;24.10;56.10;;;;;;494010;240;1452;-68
2021/09/01 03:38:15;;;;;;;;;;;24.20;56.20;;;;;;494472;240;942;-68
2021/09/01 03:40:16;;;;;;;;;;;24.20;56.10;;;;;;494036;240;1384;-68
2021/09/01 03:42:18;;;;;;;;;;;24.20;56.10;;;;;;494269;240;1156;-68
2021/09/01 03:44:19;;;;;;;;;;;24.20;56.10;;;;;;494056;240;1067;-68
2021/09/01 03:46:20;;;;;;;;;;;24.20;56.10;;;;;;493946;240;2183;-68
2021/09/01 03:48:22;;;;;;;;;;;24.20;56.10;;;;;;493993;240;1124;-68
2021/09/01 03:50:23;;;;;;;;;;;24.20;56.10;;;;;;494029;240;1146;-68
2021/09/01 03:52:25;;;;;;;;;;;24.20;56.10;;;;;;494038;240;1196;-68
2021/09/01 03:54:26;;;;;;;;;;;24.20;56.00;;;;;;494425;240;1138;-68
2021/09/01 03:56:27;;;;;;;;;;;24.20;56.20;;;;;;493982;240;1298;-68
2021/09/01 03:58:28;;;;;;;;;;;24.20;56.10;;;;;;494498;240;1197;-68
2021/09/01 04:00:30;;;;;;;;;;;24.20;56.10;;;;;;494054;240;1472;-68
2021/09/01 04:02:31;;;;;;;;;;;24.20;56.10;;;;;;493972;240;1191;-68
2021/09/01 04:04:32;;;;;;;;;;;24.20;56.10;;;;;;494029;240;1110;-68
2021/09/01 04:06:34;;;;;;;;;;;24.20;56.10;;;;;;494443;240;2194;-68
2021/09/01 04:08:37;;;;;;;;;;;24.20;56.20;;;;;;494408;240;1221;-68
2021/09/01 04:10:36;;;;;;;;;;;24.20;56.20;;;;;;493905;240;1403;-68
2021/09/01 04:12:38;;;;;;;;;;;24.20;56.10;;;;;;493965;240;1067;-68
2021/09/01 04:14:39;;;;;;;;;;;24.20;56.10;;;;;;494280;240;1055;-68
2021/09/01 04:16:40;;;;;;;;;;;24.20;56.10;;;;;;494024;240;1130;-68
2021/09/01 04:18:42;;;;;;;;;;;24.20;56.10;;;;;;493940;240;1256;-68
2021/09/01 04:20:43;;;;;;;;;;;24.20;56.10;;;;;;494142;240;1193;-68
2021/09/01 04:22:44;;;;;;;;;;;24.20;56.10;;;;;;493924;240;1303;-68
2021/09/01 04:24:46;;;;;;;;;;;24.20;56.10;;;;;;494278;240;1149;-68
2021/09/01 04:26:47;;;;;;;;;;;24.20;56.10;;;;;;493793;240;2155;-68
2021/09/01 04:28:48;;;;;;;;;;;24.20;56.10;;;;;;494216;240;1181;-68
2021/09/01 04:30:50;;;;;;;;;;;24.20;56.10;;;;;;494198;240;1125;-68
2021/09/01 04:32:51;;;;;;;;;;;24.20;56.10;;;;;;493942;240;1101;-68
2021/09/01 04:34:52;;;;;;;;;;;24.20;56.10;;;;;;493928;240;1066;-68
2021/09/01 04:36:54;;;;;;;;;;;24.30;56.10;;;;;;493927;240;1120;-68
2021/09/01 04:38:55;;;;;;;;;;;24.30;56.10;;;;;;493761;240;1242;-68
2021/09/01 04:40:56;;;;;;;;;;;24.30;56.00;;;;;;493794;240;1331;-68
2021/09/01 04:42:59;;;;;;;;;;;24.30;56.00;;;;;;494305;240;1094;-68
2021/09/01 04:45:01;;;;;;;;;;;24.30;56.10;;;;;;494173;240;1040;-68
2021/09/01 04:47:02;;;;;;;;;;;24.30;56.10;;;;;;493512;240;2222;-68
2021/09/01 04:49:03;;;;;;;;;;;24.30;56.00;;;;;;493870;240;1160;-68
2021/09/01 04:51:05;;;;;;;;;;;24.30;56.10;;;;;;493764;240;1293;-68
2021/09/01 04:53:06;;;;;;;;;;;24.30;56.00;;;;;;494117;240;1129;-68
2021/09/01 04:55:07;;;;;;;;;;;24.30;56.00;;;;;;494244;240;1143;-68
2021/09/01 04:57:08;;;;;;;;;;;24.30;56.10;;;;;;493884;240;1207;-68
2021/09/01 04:59:10;;;;;;;;;;;24.30;56.10;;;;;;493786;240;1134;-68
2021/09/01 05:01:11;;;;;;;;;;;24.30;56.00;;;;;;493914;240;1251;-68
2021/09/01 05:03:12;;;;;;;;;;;24.30;56.00;;;;;;493837;240;1059;-68
2021/09/01 05:05:14;;;;;;;;;;;24.30;56.00;;;;;;493881;240;1063;-68
2021/09/01 05:07:15;;;;;;;;;;;24.30;56.00;;;;;;493715;240;2199;-68
2021/09/01 05:09:16;;;;;;;;;;;24.30;55.90;;;;;;493757;240;1112;-68
2021/09/01 05:11:18;;;;;;;;;;;24.30;56.00;;;;;;493792;240;1183;-68
2021/09/01 05:13:19;;;;;;;;;;;24.30;56.00;;;;;;493776;240;1191;-68
2021/09/01 05:15:20;;;;;;;;;;;24.30;56.00;;;;;;493928;240;1094;-68
2021/09/01 05:17:22;;;;;;;;;;;24.30;56.00;;;;;;493959;240;1149;-68
2021/09/01 05:19:24;;;;;;;;;;;24.30;55.90;;;;;;493906;240;1205;-68
2021/09/01 05:21:24;;;;;;;;;;;24.30;56.30;;;;;;493776;240;1247;-68
2021/09/01 05:23:26;;;;;;;;;;;24.20;56.90;;;;;;493972;240;1246;-68
2021/09/01 05:25:27;;;;;;;;;;;24.10;57.00;;;;;;493735;240;1194;-68
2021/09/01 05:27:28;;;;;;;;;;;23.90;57.40;;;;;;493717;240;2175;-68
2021/09/01 05:29:30;;;;;;;;;;;23.70;57.80;;;;;;493917;240;1142;-68
2021/09/01 05:31:32;;;;;;;;;;;23.60;58.20;;;;;;493799;240;1225;-68
2021/09/01 05:33:33;;;;;;;;;;;23.50;58.60;;;;;;493774;240;1407;-68
2021/09/01 05:35:34;;;;;;;;;;;23.40;58.80;;;;;;493724;240;1196;-68
2021/09/01 05:37:37;;;;;;;;;;;23.30;58.90;;;;;;493812;240;1562;-68
2021/09/01 05:39:37;;;;;;;;;;;23.30;59.00;;;;;;493570;241;1352;-68
2021/09/01 05:41:38;;;;;;;;;;;23.20;59.10;;;;;;493622;240;1231;-67
2021/09/01 05:43:40;;;;;;;;;;;23.20;59.30;;;;;;493843;240;1230;-67
2021/09/01 05:45:41;;;;;;;;;;;23.20;59.30;;;;;;493743;240;1098;-67
2021/09/01 05:47:42;;;;;;;;;;;23.10;59.30;;;;;;493611;240;2178;-68
2021/09/01 05:49:44;;;;;;;;;;;23.10;59.40;;;;;;493502;240;1076;-67
2021/09/01 05:51:45;;;;;;;;;;;23.10;59.40;;;;;;493551;240;1238;-67
2021/09/01 05:53:46;;;;;;;;;;;23.10;59.50;;;;;;493836;240;1073;-67
2021/09/01 05:55:48;;;;;;;;;;;23.10;59.50;;;;;;493904;240;1219;-67
2021/09/01 05:57:49;;;;;;;;;;;23.00;59.50;;;;;;493711;240;1156;-67
2021/09/01 05:59:50;;;;;;;;;;;23.00;59.60;;;;;;493661;240;1063;-67
2021/09/01 06:01:52;;;;;;;;;;;23.00;59.70;;;;;;493541;240;1243;-68
2021/09/01 06:03:53;;;;;;;;;;;23.00;59.70;;;;;;493671;240;1086;-67
2021/09/01 06:05:55;;;;;;;;;;;22.90;59.60;;;;;;493669;240;1191;-68
2021/09/01 06:07:56;;;;;;;;;;;22.90;59.60;;;;;;493736;240;2186;-67
2021/09/01 06:09:57;;;;;;;;;;;22.90;59.60;;;;;;493576;240;1188;-68
2021/09/01 06:11:58;;;;;;;;;;;22.90;59.60;;;;;;493571;240;1121;-68
2021/09/01 06:14:00;;;;;;;;;;;22.90;59.70;;;;;;493710;240;1068;-67
2021/09/01 06:16:01;;;;;;;;;;;22.90;59.80;;;;;;493506;240;1218;-67
2021/09/01 06:18:03;;;;;;;;;;;22.80;59.80;;;;;;493511;240;1511;-67
2021/09/01 06:20:04;;;;;;;;;;;22.80;59.70;;;;;;493654;240;1073;-67
2021/09/01 06:22:05;;;;;;;;;;;22.90;59.80;;;;;;493446;240;1152;-67
2021/09/01 06:24:06;;;;;;;;;;;22.80;59.80;;;;;;493709;240;1253;-67
2021/09/01 06:26:08;;;;;;;;;;;22.80;59.80;;;;;;493592;240;1572;-67
2021/09/01 06:28:09;;;;;;;;;;;22.80;59.80;;;;;;493647;240;2191;-67
2021/09/01 06:30:10;;;;;;;;;;;22.80;59.80;;;;;;493613;240;1104;-68
2021/09/01 06:32:12;;;;;;;;;;;22.80;59.90;;;;;;493461;240;1277;-67
2021/09/01 06:34:13;;;;;;;;;;;22.70;59.90;;;;;;493507;240;1118;-67
2021/09/01 06:36:15;;;;;;;;;;;22.70;59.80;;;;;;493498;239;1249;-67
2021/09/01 06:38:16;;;;;;;;;;;22.80;59.90;;;;;;493461;240;1186;-67
2021/09/01 06:40:17;;;;;;;;;;;22.70;59.80;;;;;;493390;240;1234;-67
2021/09/01 06:42:19;;;;;;;;;;;22.70;59.80;;;;;;493259;240;1238;-67
2021/09/01 06:44:20;;;;;;;;;;;22.70;59.80;;;;;;493381;240;1230;-67
2021/09/01 06:46:21;;;;;;;;;;;22.70;59.80;;;;;;493276;240;1304;-68
2021/09/01 06:48:23;;;;;;;;;;;22.70;59.70;;;;;;493245;240;2224;-68
2021/09/01 06:50:24;;;;;;;;;;;22.80;59.70;;;;;;493042;240;1168;-68
2021/09/01 06:52:25;;;;;;;;;;;22.70;59.80;;;;;;493430;240;1178;-67
2021/09/01 06:54:27;;;;;;;;;;;22.70;59.80;;;;;;493077;240;1120;-68
2021/09/01 06:56:28;;;;;;;;;;;22.70;59.80;;;;;;492982;240;1251;-68
2021/09/01 06:58:29;;;;;;;;;;;22.70;59.80;;;;;;493065;240;1435;-68
2021/09/01 07:00:31;;;;;;;;;;;22.70;59.80;;;;;;493348;240;1176;-68
2021/09/01 07:02:32;;;;;;;;;;;22.70;59.70;;;;;;493171;240;1309;-68
2021/09/01 07:04:33;;;;;;;;;;;22.70;59.70;;;;;;493095;240;1110;-68
2021/09/01 07:06:35;;;;;;;;;;;22.70;59.60;;;;;;492977;240;1200;-68
2021/09/01 07:08:36;;;;;;;;;;;22.80;59.70;;;;;;493186;240;2199;-66
2021/09/01 07:10:38;;;;;;;;;;;22.70;59.60;;;;;;493135;240;1214;-68
2021/09/01 07:12:39;;;;;;;;;;;22.70;59.60;;;;;;492931;240;1336;-67
2021/09/01 07:14:40;;;;;;;;;;;22.80;59.70;;;;;;492764;240;1172;-67
2021/09/01 07:16:42;;;;;;;;;;;22.70;59.60;;;;;;493275;240;1223;-67
2021/09/01 07:18:43;;;;;;;;;;;22.70;59.60;;;;;;493426;240;900;-68
2021/09/01 07:20:44;;;;;;;;;;;22.70;59.60;;;;;;493879;240;1281;-68
2021/09/01 07:22:45;;;;;;;;;;;22.70;59.70;;;;;;493510;240;1048;-68
2021/09/01 07:24:47;;;;;;;;;;;22.70;59.70;;;;;;493125;240;1181;-68
2021/09/01 07:26:48;;;;;;;;;;;22.70;60.00;;;;;;493200;240;1208;-68
2021/09/01 07:28:49;;;;;;;;;;;23.10;58.90;;;;;;492969;240;2171;-68
2021/09/01 07:30:51;;;;;;;;;;;23.20;58.40;;;;;;492861;240;1363;-67
2021/09/01 07:32:52;;;;;;;;;;;23.10;58.80;;;;;;493383;240;1178;-68
2021/09/01 07:34:53;;;;;;;;;;;22.80;59.70;;;;;;493335;240;1061;-68
2021/09/01 07:36:55;;;;;;;;;;;22.50;60.40;;;;;;493324;240;1128;-68
2021/09/01 07:38:56;;;;;;;;;;;22.40;61.00;;;;;;493852;240;1090;-68
2021/09/01 07:40:57;;;;;;;;;;;22.30;61.50;;;;;;493917;240;1128;-68
2021/09/01 07:42:59;;;;;;;;;;;22.20;61.80;;;;;;493354;240;1085;-67
2021/09/01 07:45:00;;;;;;;;;;;22.10;61.90;;;;;;493415;240;878;-67
2021/09/01 07:47:01;;;;;;;;;;;22.10;62.10;;;;;;493593;240;1147;-67
2021/09/01 07:49:03;;;;;;;;;;;22.00;62.40;;;;;;493019;240;2191;-68
2021/09/01 07:51:04;;;;;;;;;;;22.00;62.60;;;;;;493029;240;1255;-68
2021/09/01 07:53:05;;;;;;;;;;;21.90;62.60;;;;;;493465;240;1096;-68
2021/09/01 07:55:07;;;;;;;;;;;21.90;62.70;;;;;;492885;240;1216;-67
2021/09/01 07:57:08;;;;;;;;;;;21.90;62.70;;;;;;493095;240;1303;-67
2021/09/01 07:59:09;;;;;;;;;;;21.80;62.80;;;;;;493413;240;1051;-68
2021/09/01 08:01:11;;;;;;;;;;;21.80;63.00;;;;;;493286;240;1105;-68
2021/09/01 08:03:12;;;;;;;;;;;21.80;63.20;;;;;;493384;240;1062;-68
2021/09/01 08:05:13;;;;;;;;;;;21.80;63.20;;;;;;493113;240;1077;-67
2021/09/01 08:07:15;;;;;;;;;;;21.70;63.30;;;;;;493383;240;1241;-67
2021/09/01 08:09:16;;;;;;;;;;;21.70;63.50;;;;;;493234;240;2195;-68
2021/09/01 08:11:17;;;;;;;;;;;21.70;63.60;;;;;;493144;240;1339;-67
2021/09/01 08:13:18;;;;;;;;;;;21.70;63.60;;;;;;493264;240;1209;-68
2021/09/01 08:15:20;;;;;;;;;;;21.70;63.60;;;;;;493010;240;1308;-68
2021/09/01 08:17:21;;;;;;;;;;;21.60;63.80;;;;;;493231;240;1222;-67
2021/09/01 08:19:22;;;;;;;;;;;21.60;63.80;;;;;;492931;240;1219;-68
2021/09/01 08:21:24;;;;;;;;;;;21.60;63.80;;;;;;493024;240;1253;-68
2021/09/01 08:23:25;;;;;;;;;;;21.60;63.90;;;;;;493101;240;1134;-68
2021/09/01 08:25:27;;;;;;;;;;;21.60;63.90;;;;;;493166;240;1070;-67
2021/09/01 08:27:28;;;;;;;;;;;21.60;63.90;;;;;;493085;240;1287;-68
2021/09/01 08:29:29;;;;;;;;;;;21.60;63.90;;;;;;492988;240;2190;-68
2021/09/01 08:31:31;;;;;;;;;;;21.60;64.00;;;;;;492955;240;1247;-68
2021/09/01 08:33:32;;;;;;;;;;;21.50;64.00;;;;;;492967;240;1111;-68
2021/09/01 08:35:33;;;;;;;;;;;21.50;64.10;;;;;;493064;240;1119;-68
2021/09/01 08:37:35;;;;;;;;;;;21.50;64.10;;;;;;493029;240;1345;-68
2021/09/01 08:39:36;;;;;;;;;;;21.50;64.10;;;;;;493106;240;1106;-67
2021/09/01 08:41:38;;;;;;;;;;;21.50;64.10;;;;;;492746;240;1249;-67
2021/09/01 08:43:40;;;;;;;;;;;21.50;64.10;;;;;;492862;240;1363;-67
2021/09/01 08:45:41;;;;;;;;;;;21.50;64.20;;;;;;493004;240;1208;-67
2021/09/01 08:47:42;;;;;;;;;;;21.50;64.30;;;;;;492706;240;1353;-68
2021/09/01 08:49:43;;;;;;;;;;;21.50;64.00;;;;;;493053;240;2175;-68
2021/09/01 08:51:45;;;;;;;;;;;21.50;64.00;;;;;;493008;240;1265;-68
2021/09/01 08:53:46;;;;;;;;;;;21.50;64.10;;;;;;492865;240;1298;-68
2021/09/01 08:55:47;;;;;;;;;;;21.50;64.10;;;;;;492968;240;1077;-68
2021/09/01 08:57:49;;;;;;;;;;;21.50;64.20;;;;;;493859;240;1520;-68
2021/09/01 08:59:50;;;;;;;;;;;21.40;64.10;;;;;;493356;240;1118;-68
2021/09/01 09:01:53;;;;;;;;;;;21.40;64.10;;;;;;493260;240;1110;-68
2021/09/01 09:03:53;;;;;;;;;;;21.40;64.20;;;;;;492712;240;1278;-68
2021/09/01 09:05:54;;;;;;;;;;;21.40;64.20;;;;;;493842;240;1179;-68
2021/09/01 09:07:56;;;;;;;;;;;21.40;64.20;;;;;;493429;240;2182;-68
2021/09/01 09:09:57;;;;;;;;;;;21.40;64.20;;;;;;493024;240;1156;-68
2021/09/01 09:11:58;;;;;;;;;;;21.40;64.20;;;;;;493261;240;1201;-68
2021/09/01 09:14:00;;;;;;;;;;;21.40;64.20;;;;;;493773;240;1145;-68
2021/09/01 09:16:01;;;;;;;;;;;21.40;64.20;;;;;;492959;240;1240;-68
2021/09/01 09:18:02;;;;;;;;;;;21.30;64.20;;;;;;492885;240;1301;-68
2021/09/01 09:20:04;;;;;;;;;;;21.30;64.30;;;;;;493001;240;1100;-68
2021/09/01 09:22:05;;;;;;;;;;;21.40;64.20;;;;;;493214;240;1116;-68
2021/09/01 09:24:06;;;;;;;;;;;21.30;64.20;;;;;;493407;240;1057;-68
2021/09/01 09:26:08;;;;;;;;;;;21.40;64.30;;;;;;492769;240;1257;-67
2021/09/01 09:28:09;;;;;;;;;;;21.30;64.10;;;;;;493393;240;2187;-68
2021/09/01 09:30:10;;;;;;;;;;;21.40;64.20;;;;;;493412;240;1096;-68
2021/09/01 09:32:12;;;;;;;;;;;21.30;64.20;;;;;;493572;240;1184;-68
2021/09/01 09:34:13;;;;;;;;;;;21.30;64.30;;;;;;493989;240;844;-68
2021/09/01 09:36:14;;;;;;;;;;;21.30;64.30;;;;;;493696;240;1133;-68
2021/09/01 09:38:16;;;;;;;;;;;21.30;64.30;;;;;;493447;240;1080;-68
2021/09/01 09:40:17;;;;;;;;;;;21.30;64.30;;;;;;493006;240;1103;-68
2021/09/01 09:42:18;;;;;;;;;;;21.30;64.30;;;;;;493296;240;1127;-68
2021/09/01 09:44:20;;;;;;;;;;;21.30;64.30;;;;;;493478;240;1108;-68
2021/09/01 09:46:21;;;;;;;;;;;21.30;64.30;;;;;;493895;240;1423;-68
2021/09/01 09:48:22;;;;;;;;;;;21.20;64.30;;;;;;493333;240;2202;-68
2021/09/01 09:50:24;;;;;;;;;;;21.30;64.30;;;;;;493035;240;1159;-68
2021/09/01 09:52:25;;;;;;;;;;;21.30;64.20;;;;;;493382;240;1288;-68
2021/09/01 09:54:26;;;;;;;;;;;21.30;64.20;;;;;;493889;240;1054;-68
2021/09/01 09:56:29;;;;;;;;;;;21.20;64.30;;;;;;493314;240;1174;-68
2021/09/01 09:58:29;;;;;;;;;;;21.20;64.30;;;;;;493928;240;1400;-68
2021/09/01 10:00:30;;;;;;;;;;;21.20;64.30;;;;;;492804;240;1149;-68
2021/09/01 10:02:32;;;;;;;;;;;21.20;64.30;;;;;;493392;240;1258;-68
2021/09/01 10:04:33;;;;;;;;;;;21.20;64.30;;;;;;493904;240;860;-68
2021/09/01 10:06:34;;;;;;;;;;;21.20;64.50;;;;;;493261;240;1180;-67
2021/09/01 10:08:36;;;;;;;;;;;21.20;64.40;;;;;;493770;240;2178;-68
2021/09/01 10:10:37;;;;;;;;;;;21.20;64.30;;;;;;493077;240;1117;-68
2021/09/01 10:12:38;;;;;;;;;;;21.20;64.30;;;;;;493431;240;1163;-67
2021/09/01 10:14:40;;;;;;;;;;;21.20;64.20;;;;;;493773;240;1125;-68
2021/09/01 10:16:41;;;;;;;;;;;21.20;64.30;;;;;;493476;240;1103;-68
2021/09/01 10:18:42;;;;;;;;;;;21.20;64.30;;;;;;493503;240;1111;-68
2021/09/01 10:20:44;;;;;;;;;;;21.20;64.30;;;;;;493920;240;1132;-68
2021/09/01 10:22:45;;;;;;;;;;;21.20;64.40;;;;;;493392;240;1074;-68
2021/09/01 10:24:47;;;;;;;;;;;21.20;64.40;;;;;;493347;240;889;-68
2021/09/01 10:26:48;;;;;;;;;;;21.20;64.30;;;;;;493250;240;1288;-68
2021/09/01 10:28:49;;;;;;;;;;;21.20;64.40;;;;;;493439;240;2190;-68
2021/09/01 10:30:50;;;;;;;;;;;21.20;64.50;;;;;;493528;240;1179;-68
2021/09/01 10:32:52;;;;;;;;;;;21.20;64.40;;;;;;493833;240;1028;-68
2021/09/01 10:34:53;;;;;;;;;;;21.10;64.50;;;;;;493843;240;846;-68
2021/09/01 10:36:54;;;;;;;;;;;21.20;64.40;;;;;;493346;240;1154;-68
2021/09/01 10:38:56;;;;;;;;;;;21.20;64.40;;;;;;493410;240;833;-68
2021/09/01 10:40:57;;;;;;;;;;;21.20;64.50;;;;;;493370;240;1190;-68
2021/09/01 10:42:58;;;;;;;;;;;21.10;64.50;;;;;;493655;240;1141;-68
2021/09/01 10:44:59;;;;;;;;;;;21.10;64.60;;;;;;493197;240;1161;-67
2021/09/01 10:47:01;;;;;;;;;;;21.10;64.60;;;;;;493299;240;1246;-68
2021/09/01 10:49:02;;;;;;;;;;;21.10;64.60;;;;;;493035;240;2206;-68
2021/09/01 10:51:03;;;;;;;;;;;21.10;64.60;;;;;;493229;240;1272;-68
2021/09/01 10:53:07;;;;;;;;;;;21.10;64.60;;;;;;493394;240;1124;-68
2021/09/01 10:55:06;;;;;;;;;;;21.10;64.50;;;;;;493164;241;1269;-68
2021/09/01 10:57:08;;;;;;;;;;;21.10;64.50;;;;;;493438;240;1308;-68
2021/09/01 10:59:09;;;;;;;;;;;21.10;64.60;;;;;;493114;240;1299;-68
2021/09/01 11:01:10;;;;;;;;;;;21.10;64.60;;;;;;492999;240;1256;-68
2021/09/01 11:03:12;;;;;;;;;;;21.10;64.50;;;;;;492872;240;1210;-68
2021/09/01 11:05:13;;;;;;;;;;;21.10;64.40;;;;;;493064;240;1393;-68
2021/09/01 11:07:14;;;;;;;;;;;21.10;64.50;;;;;;493030;240;1250;-68
2021/09/01 11:09:17;;;;;;;;;;;21.10;64.50;;;;;;493202;240;2139;-68
2021/09/01 11:11:17;;;;;;;;;;;21.10;64.50;;;;;;493091;240;1385;-68
2021/09/01 11:13:18;;;;;;;;;;;21.10;64.50;;;;;;493086;240;1257;-68
2021/09/01 11:15:20;;;;;;;;;;;21.00;64.50;;;;;;492849;240;1206;-68
2021/09/01 11:17:21;;;;;;;;;;;21.00;64.60;;;;;;492903;240;1341;-68
2021/09/01 11:19:22;;;;;;;;;;;21.10;64.60;;;;;;493070;240;1203;-68
2021/09/01 11:21:24;;;;;;;;;;;21.00;64.50;;;;;;492911;240;1236;-68
2021/09/01 11:23:25;;;;;;;;;;;21.10;64.60;;;;;;493006;240;1100;-67
2021/09/01 11:25:26;;;;;;;;;;;21.10;64.60;;;;;;492819;240;1456;-68
2021/09/01 11:27:28;;;;;;;;;;;21.00;64.60;;;;;;493227;240;1287;-68
2021/09/01 11:29:29;;;;;;;;;;;21.00;64.60;;;;;;493840;240;2191;-68
2021/09/01 11:31:30;;;;;;;;;;;21.00;64.60;;;;;;493447;240;1210;-68
2021/09/01 11:33:32;;;;;;;;;;;21.00;64.60;;;;;;493807;240;1045;-68
2021/09/01 11:35:33;;;;;;;;;;;21.00;64.60;;;;;;493043;240;1180;-68
2021/09/01 11:37:34;;;;;;;;;;;21.00;64.60;;;;;;492838;240;1273;-68
2021/09/01 11:39:36;;;;;;;;;;;21.00;64.60;;;;;;493108;240;1091;-68
2021/09/01 11:41:37;;;;;;;;;;;21.00;64.60;;;;;;493193;240;1361;-68
2021/09/01 11:43:38;;;;;;;;;;;21.00;64.60;;;;;;494008;240;1139;-68
2021/09/01 11:45:40;;;;;;;;;;;21.00;64.60;;;;;;493375;240;1211;-67
2021/09/01 11:47:41;;;;;;;;;;;21.00;64.60;;;;;;493077;240;1384;-67
2021/09/01 11:49:43;;;;;;;;;;;21.00;64.60;;;;;;492983;240;2195;-68
2021/09/01 11:51:44;;;;;;;;;;;21.00;64.60;;;;;;493019;240;1194;-68
2021/09/01 11:53:46;;;;;;;;;;;21.00;64.60;;;;;;492866;240;1169;-68
2021/09/01 11:55:47;;;;;;;;;;;21.00;64.50;;;;;;492853;240;1232;-68
2021/09/01 11:57:49;;;;;;;;;;;21.00;64.60;;;;;;492692;240;1251;-68